Europa — C6QK8 — position and weather

sailwx.info

Track history (hours):
 
Tides and Currents Weather Stations Pressure Air Temp Water Temp Dewpoint Dewpoint Depression Visibility Wind Speed Wind Dir Waves Ship Positions

Europa

Operator: Hapag-Lloyd Container Line

Last reported at 2018-Feb-18 20:06 UTC. Time now 2018-Feb-19 10:10 UTC.
Position S 35°36' E 137°60'.

Length 199 m; draft 6.2 m.

Type: Passenger vessel. MMSI: 308007000.

Date/timePositionNaut miles runAvg speedWind from/ knotsBaromVisibWave heightAir tempDewpointWater temp
2018-Feb-18 20:06S 35°36' E 137°60'1 9.6
2018-Feb-18 20:01S 35°35' E 138°00'54 7.9
2018-Feb-18 13:15S 34°47' E 138°29'  
2018-Feb-16 08:46S 40°56' E 145°49'516.8
2018-Feb-16 08:29S 40°59' E 145°54'4 9.0
2018-Feb-16 08:00S 41°03' E 145°55'0 0.7
2018-Feb-16 07:30S 41°03' E 145°55'0 0.0
2018-Feb-16 07:00S 41°03' E 145°55'0 0.0
2018-Feb-16 06:30S 41°03' E 145°55'0 0.0
2018-Feb-16 06:00S 41°03' E 145°55'0 0.0
2018-Feb-16 05:30S 41°03' E 145°55'0 0.0
2018-Feb-16 05:00S 41°03' E 145°55'0 0.0
2018-Feb-16 04:30S 41°03' E 145°55'0 0.0
2018-Feb-16 04:00S 41°03' E 145°55'0 0.0
2018-Feb-16 03:30S 41°03' E 145°55'0 0.0
2018-Feb-16 03:00S 41°03' E 145°55'0 0.0
2018-Feb-16 02:30S 41°03' E 145°55'0 0.0
2018-Feb-16 02:00S 41°03' E 145°55'0 0.0
2018-Feb-16 01:30S 41°03' E 145°55'0 0.0
2018-Feb-16 00:57S 41°03' E 145°55'0 0.0
2018-Feb-16 00:30S 41°03' E 145°55'0 0.0
2018-Feb-16 00:00S 41°03' E 145°55'0 0.0
2018-Feb-15 23:30S 41°03' E 145°55'0 0.0
2018-Feb-15 23:00S 41°03' E 145°55'0 0.0
2018-Feb-15 22:30S 41°03' E 145°55'0 0.0
2018-Feb-15 22:00S 41°03' E 145°55'0 0.0
2018-Feb-15 21:30S 41°03' E 145°55'0 0.7
2018-Feb-15 21:00S 41°03' E 145°55'4 7.5
2018-Feb-15 20:30S 41°00' E 145°58'713.4
2018-Feb-15 20:00S 40°54' E 145°55'713.4
2018-Feb-15 19:30S 40°48' E 145°52'713.8
2018-Feb-15 19:01S 40°41' E 145°49'714.3
2018-Feb-15 18:30S 40°35' E 145°45'14314.3
2018-Feb-15 08:31S 38°17' E 144°55'617.6
2018-Feb-15 08:10S 38°11' E 144°55'418.0
2018-Feb-15 07:57S 38°07' E 144°55'817.7
2018-Feb-15 07:30S 37°59' E 144°55'814.1
2018-Feb-15 06:56S 37°51' E 144°56'1 0.1
2018-Feb-14 20:16S 37°51' E 144°56'0 0.4
2018-Feb-14 19:55S 37°51' E 144°56'4 7.1
2018-Feb-14 19:25S 37°54' E 144°56'915.9
2018-Feb-14 18:52S 38°03' E 144°55'174 9.4
2018-Feb-14 00:25S 38°31' E 148°34'717.6
2018-Feb-14 00:00S 38°27' E 148°42'918.1
2018-Feb-13 23:30S 38°22' E 148°51'918.2
2018-Feb-13 23:00S 38°17' E 149°01'918.3
2018-Feb-13 22:30S 38°12' E 149°10'918.1
2018-Feb-13 22:00S 38°06' E 149°20'918.2
2018-Feb-13 21:29S 38°01' E 149°30'918.3
2018-Feb-13 21:00S 37°56' E 149°39'918.2
2018-Feb-13 20:30S 37°51' E 149°48'918.5
2018-Feb-13 20:00S 37°44' E 149°55'918.4
2018-Feb-13 19:31S 37°36' E 150°01'918.0
2018-Feb-13 19:00S 37°28' E 150°07'22218.5
2018-Feb-13 07:02S 33°55' E 151°23'118.3
2018-Feb-13 06:59S 33°54' E 151°23'4 0.1
2018-Feb-11 18:46S 33°50' E 151°21'311.9
2018-Feb-11 18:30S 33°48' E 151°24'612.1
2018-Feb-11 17:59S 33°44' E 151°29'815.6
2018-Feb-11 17:30S 33°39' E 151°36'3112.7
2018-Feb-11 15:05S 33°17' E 152°02'212.7
2018-Feb-11 14:58S 33°16' E 152°03'612.4
2018-Feb-11 14:29S 33°12' E 152°08'612.3
2018-Feb-11 14:00S 33°08' E 152°13'612.4
2018-Feb-11 13:30S 33°03' E 152°18'612.4
2018-Feb-11 13:00S 32°59' E 152°24'612.4
2018-Feb-11 12:30S 32°54' E 152°28'612.1
2018-Feb-11 12:00S 32°50' E 152°33'612.2
2018-Feb-11 11:30S 32°45' E 152°38'612.1
2018-Feb-11 11:00S 32°40' E 152°41'510.9
2018-Feb-11 10:30S 32°35' E 152°45'510.7
2018-Feb-11 10:00S 32°31' E 152°48'4712.0
2018-Feb-11 06:06S 31°52' E 153°20'112.3
2018-Feb-11 06:00S 31°51' E 153°20'11114.8
2018-Feb-10 22:29S 30°20' E 154°35'912.7
2018-Feb-10 21:45S 30°13' E 154°42'11813.1
2018-Feb-10 12:44S 28°41' E 156°07'414.4
2018-Feb-10 12:28S 28°38' E 156°10'714.3
2018-Feb-10 11:59S 28°33' E 156°16'714.4
2018-Feb-10 11:30S 28°28' E 156°21'814.6
2018-Feb-10 10:59S 28°23' E 156°28'1214.7
2018-Feb-10 10:12S 28°15' E 156°37'414.4
2018-Feb-10 09:56S 28°12' E 156°40'613.9
2018-Feb-10 09:30S 28°08' E 156°45'914.0
2018-Feb-10 08:51S 28°02' E 156°52'2013.7
2018-Feb-10 07:25S 27°48' E 157°08'  
Track history (hours):
 
Tides and Currents Weather Stations Pressure Air Temp Water Temp Dewpoint Dewpoint Depression Visibility Wind Speed Wind Dir Waves Ship Positions

Europa

Operator: Hapag-Lloyd Container Line

Last reported at 2018-Feb-18 20:06 UTC. Time now 2018-Feb-19 10:10 UTC.
Position S 35°36' E 137°60'.

Length 199 m; draft 6.2 m.

Type: Passenger vessel. MMSI: 308007000.

Date/timePositionNaut miles runAvg speedWind from/ knotsBaromVisibWave heightAir tempDewpointWater temp
2018-Feb-18 20:06S 35°36' E 137°60'1 9.6
2018-Feb-18 20:01S 35°35' E 138°00'54 7.9
2018-Feb-18 13:15S 34°47' E 138°29'  
2018-Feb-16 08:46S 40°56' E 145°49'516.8
2018-Feb-16 08:29S 40°59' E 145°54'4 9.0
2018-Feb-16 08:00S 41°03' E 145°55'0 0.7
2018-Feb-16 07:30S 41°03' E 145°55'0 0.0
2018-Feb-16 07:00S 41°03' E 145°55'0 0.0
2018-Feb-16 06:30S 41°03' E 145°55'0 0.0
2018-Feb-16 06:00S 41°03' E 145°55'0 0.0
2018-Feb-16 05:30S 41°03' E 145°55'0 0.0
2018-Feb-16 05:00S 41°03' E 145°55'0 0.0
2018-Feb-16 04:30S 41°03' E 145°55'0 0.0
2018-Feb-16 04:00S 41°03' E 145°55'0 0.0
2018-Feb-16 03:30S 41°03' E 145°55'0 0.0
2018-Feb-16 03:00S 41°03' E 145°55'0 0.0
2018-Feb-16 02:30S 41°03' E 145°55'0 0.0
2018-Feb-16 02:00S 41°03' E 145°55'0 0.0
2018-Feb-16 01:30S 41°03' E 145°55'0 0.0
2018-Feb-16 00:57S 41°03' E 145°55'0 0.0
2018-Feb-16 00:30S 41°03' E 145°55'0 0.0
2018-Feb-16 00:00S 41°03' E 145°55'0 0.0
2018-Feb-15 23:30S 41°03' E 145°55'0 0.0
2018-Feb-15 23:00S 41°03' E 145°55'0 0.0
2018-Feb-15 22:30S 41°03' E 145°55'0 0.0
2018-Feb-15 22:00S 41°03' E 145°55'0 0.0
2018-Feb-15 21:30S 41°03' E 145°55'0 0.7
2018-Feb-15 21:00S 41°03' E 145°55'4 7.5
2018-Feb-15 20:30S 41°00' E 145°58'713.4
2018-Feb-15 20:00S 40°54' E 145°55'713.4
2018-Feb-15 19:30S 40°48' E 145°52'713.8
2018-Feb-15 19:01S 40°41' E 145°49'714.3
2018-Feb-15 18:30S 40°35' E 145°45'14314.3
2018-Feb-15 08:31S 38°17' E 144°55'617.6
2018-Feb-15 08:10S 38°11' E 144°55'418.0
2018-Feb-15 07:57S 38°07' E 144°55'817.7
2018-Feb-15 07:30S 37°59' E 144°55'814.1
2018-Feb-15 06:56S 37°51' E 144°56'1 0.1
2018-Feb-14 20:16S 37°51' E 144°56'0 0.4
2018-Feb-14 19:55S 37°51' E 144°56'4 7.1
2018-Feb-14 19:25S 37°54' E 144°56'915.9
2018-Feb-14 18:52S 38°03' E 144°55'174 9.4
2018-Feb-14 00:25S 38°31' E 148°34'717.6
2018-Feb-14 00:00S 38°27' E 148°42'918.1
2018-Feb-13 23:30S 38°22' E 148°51'918.2
2018-Feb-13 23:00S 38°17' E 149°01'918.3
2018-Feb-13 22:30S 38°12' E 149°10'918.1
2018-Feb-13 22:00S 38°06' E 149°20'918.2
2018-Feb-13 21:29S 38°01' E 149°30'918.3
2018-Feb-13 21:00S 37°56' E 149°39'918.2
2018-Feb-13 20:30S 37°51' E 149°48'918.5
2018-Feb-13 20:00S 37°44' E 149°55'918.4
2018-Feb-13 19:31S 37°36' E 150°01'918.0
2018-Feb-13 19:00S 37°28' E 150°07'22218.5
2018-Feb-13 07:02S 33°55' E 151°23'118.3
2018-Feb-13 06:59S 33°54' E 151°23'4 0.1
2018-Feb-11 18:46S 33°50' E 151°21'311.9
2018-Feb-11 18:30S 33°48' E 151°24'612.1
2018-Feb-11 17:59S 33°44' E 151°29'815.6
2018-Feb-11 17:30S 33°39' E 151°36'3112.7
2018-Feb-11 15:05S 33°17' E 152°02'212.7
2018-Feb-11 14:58S 33°16' E 152°03'612.4
2018-Feb-11 14:29S 33°12' E 152°08'612.3
2018-Feb-11 14:00S 33°08' E 152°13'612.4
2018-Feb-11 13:30S 33°03' E 152°18'612.4
2018-Feb-11 13:00S 32°59' E 152°24'612.4
2018-Feb-11 12:30S 32°54' E 152°28'612.1
2018-Feb-11 12:00S 32°50' E 152°33'612.2
2018-Feb-11 11:30S 32°45' E 152°38'612.1
2018-Feb-11 11:00S 32°40' E 152°41'510.9
2018-Feb-11 10:30S 32°35' E 152°45'510.7
2018-Feb-11 10:00S 32°31' E 152°48'4712.0
2018-Feb-11 06:06S 31°52' E 153°20'112.3
2018-Feb-11 06:00S 31°51' E 153°20'11114.8
2018-Feb-10 22:29S 30°20' E 154°35'912.7
2018-Feb-10 21:45S 30°13' E 154°42'11813.1
2018-Feb-10 12:44S 28°41' E 156°07'414.4
2018-Feb-10 12:28S 28°38' E 156°10'714.3
2018-Feb-10 11:59S 28°33' E 156°16'714.4
2018-Feb-10 11:30S 28°28' E 156°21'814.6
2018-Feb-10 10:59S 28°23' E 156°28'1214.7
2018-Feb-10 10:12S 28°15' E 156°37'414.4
2018-Feb-10 09:56S 28°12' E 156°40'613.9
2018-Feb-10 09:30S 28°08' E 156°45'914.0
2018-Feb-10 08:51S 28°02' E 156°52'2013.7
2018-Feb-10 07:25S 27°48' E 157°08'  

Dump ship's entire track history